Isla Saona, Dominican Republic
Current Conditions -  °F | °C
As of 9:00 AM on Saturday 22 Nov 2014 (Local Time) from MDPC Reporting Station
Broken Clouds Broken Clouds  
Wind Chill: 25°   Ceiling: 7000
Heat Index: 26°   Visibility: 6mi
Dew Point: 24°   Wind: 12mph
Humidity: 94%   Direction: 100°E
Pressure: 30.03"   Gusts: NA
Location:  18.09°N, 67.89°W
Report Text: MDPC 221300Z 10010KT 9999 SCT016 BKN070 25/24 Q1017 RERA
Loading
Personal Weather Stations






























Interactive Weather Map New forecast layout! Learn more

10-Day Weather Forecast

Advertisements
Track Severe Weather on mobile